Archival Weather

Heathrow

Heathrow, United Kingdom (EGLL)

Report from: Thursday, June 23, 2022 1:50 PM BST
Current time: Tuesday, August 16, 2022 8:14 AM BST

Current weather
Weather history
Weather forecast

Temperature24.0°C (75.2°F)
Dew point10.0°C (50.0°F)
Winds 4 kts (2.1 m/s, 4.6 mph) Vrb
Winds variableWinds variable from North-Northeast (20°) to South-Southeast (160°)
Visibility6.2 mi. (10 km)
Clouds Sky clear
Altimeter29.80 in.Hg (1009 mB)
Relative humidity41 %
Density altitude1,363 ft. (415 m)
Remarks Fully automated report
Corrected report
No clouds detected
No significant changes expected in the next two hours
Flight conditions Visual Meteorological Conditions
Raw dataCOR EGLL 231250Z AUTO 07004KT 020V160 9999 NCD 24/10 Q1009 NOSIG
An error has occurred. This application may no longer respond until reloaded. Reload 🗙